Time,TemperatureF,DewpointF,PressureIn,WindDirection,WindDirectionDegrees,WindSpeedMPH,WindSpeedGustMPH,Humidity,HourlyPrecipIn,Conditions,Clouds,dailyrainin,SoftwareType,DateUTC
2013-06-20 00:00:00,54.1,46.3,30.02,NNE,18,0.0,0.0,75,0.00,,,0.00,Wunderground v.1.15,2013-06-20 07:00:00,
2013-06-20 00:10:00,54.0,46.3,30.02,NW,313,0.0,1.0,75,0.00,,,0.00,Wunderground v.1.15,2013-06-20 07:10:00,
2013-06-20 00:15:00,54.0,46.3,30.02,NW,313,0.0,1.0,75,0.00,,,0.00,Wunderground v.1.15,2013-06-20 07:15:00,
2013-06-20 00:20:00,53.9,46.2,30.02,NW,313,0.0,0.0,75,0.00,,,0.00,Wunderground v.1.15,2013-06-20 07:20:00,
2013-06-20 00:25:00,53.7,46.0,30.02,NW,313,0.0,0.0,75,0.00,,,0.00,Wunderground v.1.15,2013-06-20 07:25:00,
2013-06-20 00:30:00,53.5,46.1,30.02,NW,313,0.0,0.0,76,0.00,,,0.00,Wunderground v.1.15,2013-06-20 07:30:00,
2013-06-20 00:40:00,53.2,45.8,30.02,NW,313,0.0,0.0,76,0.00,,,0.00,Wunderground v.1.15,2013-06-20 07:40:00,
2013-06-20 00:45:00,53.1,46.1,30.02,NNW,341,0.0,0.0,77,0.00,,,0.00,Wunderground v.1.15,2013-06-20 07:45:00,
2013-06-20 00:50:00,53.0,46.0,30.02,NNW,341,0.0,0.0,77,0.00,,,0.00,Wunderground v.1.15,2013-06-20 07:50:00,
2013-06-20 01:00:00,52.8,45.8,30.01,NNW,341,0.0,0.0,77,0.00,,,0.00,Wunderground v.1.15,2013-06-20 08:00:00,
2013-06-20 01:05:00,52.8,45.8,30.01,SSE,157,0.0,0.0,77,0.00,,,0.00,Wunderground v.1.15,2013-06-20 08:05:00,
2013-06-20 01:10:00,52.8,45.8,30.01,SSE,156,0.0,0.0,77,0.00,,,0.00,Wunderground v.1.15,2013-06-20 08:10:00,
2013-06-20 01:15:00,52.9,45.9,30.01,WNW,286,0.0,0.0,77,0.00,,,0.00,Wunderground v.1.15,2013-06-20 08:15:00,
2013-06-20 01:20:00,53.1,46.1,30.01,SW,217,0.0,0.0,77,0.00,,,0.00,Wunderground v.1.15,2013-06-20 08:20:00,
2013-06-20 01:30:00,53.4,46.0,30.01,SSE,158,0.0,0.0,76,0.00,,,0.00,Wunderground v.1.15,2013-06-20 08:30:00,
2013-06-20 01:35:00,53.5,46.1,30.01,South,169,0.0,0.0,76,0.00,,,0.00,Wunderground v.1.15,2013-06-20 08:35:00,
2013-06-20 01:40:00,53.6,45.9,30.01,South,169,0.0,0.0,75,0.00,,,0.00,Wunderground v.1.15,2013-06-20 08:40:00,
2013-06-20 01:45:00,53.6,45.9,30.00,South,169,0.0,0.0,75,0.00,,,0.00,Wunderground v.1.15,2013-06-20 08:45:00,
2013-06-20 01:50:00,53.5,45.8,30.00,South,169,0.0,0.0,75,0.00,,,0.00,Wunderground v.1.15,2013-06-20 08:50:00,
2013-06-20 02:00:00,53.3,45.6,30.00,South,171,0.0,0.0,75,0.00,,,0.00,Wunderground v.1.15,2013-06-20 09:00:00,
2013-06-20 02:05:00,53.3,45.6,30.00,South,171,0.0,0.0,75,0.00,,,0.00,Wunderground v.1.15,2013-06-20 09:05:00,
2013-06-20 02:10:00,53.2,45.5,30.00,South,171,0.0,0.0,75,0.00,,,0.00,Wunderground v.1.15,2013-06-20 09:10:00,
2013-06-20 02:15:00,53.1,45.4,30.00,SSE,159,0.0,0.0,75,0.00,,,0.00,Wunderground v.1.15,2013-06-20 09:15:00,
2013-06-20 02:25:00,52.8,45.1,30.00,SSE,159,0.0,0.0,75,0.00,,,0.00,Wunderground v.1.15,2013-06-20 09:25:00,
2013-06-20 02:30:00,52.6,45.2,30.00,SSE,159,0.0,0.0,76,0.00,,,0.00,Wunderground v.1.15,2013-06-20 09:30:00,
2013-06-20 02:35:00,52.6,45.2,30.00,SSE,159,0.0,0.0,76,0.00,,,0.00,Wunderground v.1.15,2013-06-20 09:35:00,
2013-06-20 02:40:00,52.4,45.4,30.00,SSE,159,0.0,0.0,77,0.00,,,0.00,Wunderground v.1.15,2013-06-20 09:40:00,
2013-06-20 02:45:00,52.3,45.3,30.00,SSE,159,0.0,0.0,77,0.00,,,0.00,Wunderground v.1.15,2013-06-20 09:45:00,
2013-06-20 02:50:00,52.1,45.1,30.00,SSE,159,0.0,0.0,77,0.00,,,0.00,Wunderground v.1.15,2013-06-20 09:50:00,
2013-06-20 02:55:00,52.0,45.4,30.00,SSE,159,0.0,0.0,78,0.00,,,0.00,Wunderground v.1.15,2013-06-20 09:55:00,
2013-06-20 03:05:00,51.8,45.2,29.99,SSE,159,0.0,0.0,78,0.00,,,0.00,Wunderground v.1.15,2013-06-20 10:05:00,
2013-06-20 03:10:00,51.8,45.2,29.99,SSE,159,0.0,0.0,78,0.00,,,0.00,Wunderground v.1.15,2013-06-20 10:10:00,
2013-06-20 03:15:00,51.8,45.5,29.99,SSE,159,0.0,0.0,79,0.00,,,0.00,Wunderground v.1.15,2013-06-20 10:15:00,
2013-06-20 03:20:00,51.7,45.4,29.99,SSE,159,0.0,0.0,79,0.00,,,0.00,Wunderground v.1.15,2013-06-20 10:20:00,
2013-06-20 03:30:00,51.4,45.4,29.99,SSE,159,0.0,0.0,80,0.00,,,0.00,Wunderground v.1.15,2013-06-20 10:30:00,
2013-06-20 03:35:00,51.3,45.3,29.99,SSE,159,0.0,0.0,80,0.00,,,0.00,Wunderground v.1.15,2013-06-20 10:35:00,
2013-06-20 03:40:00,51.1,45.5,29.99,SSE,159,0.0,0.0,81,0.00,,,0.00,Wunderground v.1.15,2013-06-20 10:40:00,
2013-06-20 03:45:00,51.0,45.4,29.99,SSE,159,0.0,0.0,81,0.00,,,0.00,Wunderground v.1.15,2013-06-20 10:45:00,
2013-06-20 03:50:00,50.9,45.3,29.99,SSE,159,0.0,0.0,81,0.00,,,0.00,Wunderground v.1.15,2013-06-20 10:50:00,
2013-06-20 03:55:00,50.7,45.1,29.99,SSE,159,0.0,0.0,81,0.00,,,0.00,Wunderground v.1.15,2013-06-20 10:55:00,
2013-06-20 04:05:00,50.4,45.1,29.99,SSE,159,0.0,0.0,82,0.00,,,0.00,Wunderground v.1.15,2013-06-20 11:05:00,
2013-06-20 04:10:00,50.2,44.9,29.99,SSE,159,0.0,0.0,82,0.00,,,0.00,Wunderground v.1.15,2013-06-20 11:10:00,
2013-06-20 04:15:00,50.1,45.1,29.99,SSE,159,0.0,0.0,83,0.00,,,0.00,Wunderground v.1.15,2013-06-20 11:15:00,
2013-06-20 04:20:00,50.0,45.0,29.98,SSE,159,0.0,0.0,83,0.00,,,0.00,Wunderground v.1.15,2013-06-20 11:20:00,
2013-06-20 04:25:00,49.9,44.9,29.98,SSE,159,0.0,0.0,83,0.00,,,0.00,Wunderground v.1.15,2013-06-20 11:25:00,
2013-06-20 04:35:00,50.1,45.5,29.98,SSE,159,0.0,0.0,84,0.00,,,0.00,Wunderground v.1.15,2013-06-20 11:35:00,
2013-06-20 04:40:00,50.5,45.5,29.98,SSE,159,0.0,0.0,83,0.00,,,0.00,Wunderground v.1.15,2013-06-20 11:40:00,
2013-06-20 04:45:00,50.8,45.8,29.98,SSE,159,0.0,0.0,83,0.00,,,0.00,Wunderground v.1.15,2013-06-20 11:45:00,
2013-06-20 04:50:00,50.9,45.6,29.98,SSE,159,0.0,0.0,82,0.00,,,0.00,Wunderground v.1.15,2013-06-20 11:50:00,
2013-06-20 04:55:00,50.8,45.5,29.98,SSE,159,0.0,0.0,82,0.00,,,0.00,Wunderground v.1.15,2013-06-20 11:55:00,
2013-06-20 05:00:00,50.7,45.4,29.98,SSE,159,0.0,0.0,82,0.00,,,0.00,Wunderground v.1.15,2013-06-20 12:00:00,
2013-06-20 05:10:00,50.2,44.9,29.98,SSE,159,0.0,0.0,82,0.00,,,0.00,Wunderground v.1.15,2013-06-20 12:10:00,
2013-06-20 05:15:00,49.9,44.9,29.98,SSE,159,0.0,0.0,83,0.00,,,0.00,Wunderground v.1.15,2013-06-20 12:15:00,
2013-06-20 05:20:00,49.7,44.7,29.99,SSE,159,0.0,0.0,83,0.00,,,0.00,Wunderground v.1.15,2013-06-20 12:20:00,
2013-06-20 05:25:00,49.6,45.0,29.99,SSE,159,0.0,0.0,84,0.00,,,0.00,Wunderground v.1.15,2013-06-20 12:25:00,
2013-06-20 05:30:00,49.5,44.9,29.99,SSE,159,0.0,0.0,84,0.00,,,0.00,Wunderground v.1.15,2013-06-20 12:30:00,
2013-06-20 05:40:00,49.2,44.6,29.99,SSE,159,0.0,0.0,84,0.00,,,0.00,Wunderground v.1.15,2013-06-20 12:40:00,
2013-06-20 05:45:00,49.1,44.8,29.99,SSE,159,0.0,0.0,85,0.00,,,0.00,Wunderground v.1.15,2013-06-20 12:45:00,
2013-06-20 05:50:00,49.1,44.8,29.99,SSE,159,0.0,0.0,85,0.00,,,0.00,Wunderground v.1.15,2013-06-20 12:50:00,
2013-06-20 06:00:00,49.1,45.1,29.99,SSE,159,0.0,0.0,86,0.00,,,0.00,Wunderground v.1.15,2013-06-20 13:00:00,
2013-06-20 06:05:00,49.2,44.9,29.99,SSE,159,0.0,0.0,85,0.00,,,0.00,Wunderground v.1.15,2013-06-20 13:05:00,
2013-06-20 06:10:00,49.2,44.9,30.00,SSE,159,0.0,0.0,85,0.00,,,0.00,Wunderground v.1.15,2013-06-20 13:10:00,
2013-06-20 06:15:00,49.2,45.2,30.00,SSE,159,0.0,0.0,86,0.00,,,0.00,Wunderground v.1.15,2013-06-20 13:15:00,
2013-06-20 06:20:00,49.3,45.3,30.00,SSE,159,0.0,0.0,86,0.00,,,0.00,Wunderground v.1.15,2013-06-20 13:20:00,
2013-06-20 06:30:00,49.6,45.6,30.00,SSE,159,0.0,0.0,86,0.00,,,0.00,Wunderground v.1.15,2013-06-20 13:30:00,
2013-06-20 06:35:00,50.0,45.7,30.00,SSE,159,0.0,0.0,85,0.00,,,0.00,Wunderground v.1.15,2013-06-20 13:35:00,
2013-06-20 06:40:00,50.5,46.2,30.00,SSE,159,0.0,0.0,85,0.00,,,0.00,Wunderground v.1.15,2013-06-20 13:40:00,
2013-06-20 06:45:00,51.0,46.3,30.00,SSE,159,0.0,0.0,84,0.00,,,0.00,Wunderground v.1.15,2013-06-20 13:45:00,
2013-06-20 06:55:00,51.9,46.6,30.00,SSE,159,0.0,0.0,82,0.00,,,0.00,Wunderground v.1.15,2013-06-20 13:55:00,
2013-06-20 07:00:00,52.5,46.8,30.00,SSE,159,0.0,0.0,81,0.00,,,0.00,Wunderground v.1.15,2013-06-20 14:00:00,
2013-06-20 07:05:00,53.1,47.1,30.00,SSE,159,0.0,0.0,80,0.00,,,0.00,Wunderground v.1.15,2013-06-20 14:05:00,
2013-06-20 07:10:00,53.7,47.3,30.00,SSE,159,0.0,0.0,79,0.00,,,0.00,Wunderground v.1.15,2013-06-20 14:10:00,
2013-06-20 07:15:00,54.4,47.7,30.00,SSE,159,0.0,0.0,78,0.00,,,0.00,Wunderground v.1.15,2013-06-20 14:15:00,
2013-06-20 07:20:00,55.0,47.9,30.00,West,274,0.0,0.0,77,0.00,,,0.00,Wunderground v.1.15,2013-06-20 14:20:00,
2013-06-20 07:25:00,55.6,48.2,30.00,West,274,0.0,0.0,76,0.00,,,0.00,Wunderground v.1.15,2013-06-20 14:25:00,
2013-06-20 07:30:00,56.1,47.9,30.00,West,273,0.0,0.0,74,0.00,,,0.00,Wunderground v.1.15,2013-06-20 14:30:00,
2013-06-20 07:35:00,56.5,47.9,30.01,West,273,0.0,0.0,73,0.00,,,0.00,Wunderground v.1.15,2013-06-20 14:35:00,
2013-06-20 07:45:00,57.7,47.2,30.01,WSW,253,0.0,0.0,68,0.00,,,0.00,Wunderground v.1.15,2013-06-20 14:45:00,
2013-06-20 07:50:00,57.8,47.3,30.01,WSW,257,1.0,1.0,68,0.00,,,0.00,Wunderground v.1.15,2013-06-20 14:50:00,
2013-06-20 07:55:00,58.0,47.5,30.01,SSW,210,1.0,1.0,68,0.00,,,0.00,Wunderground v.1.15,2013-06-20 14:55:00,
2013-06-20 08:00:00,58.4,47.9,30.01,WSW,238,0.0,0.0,68,0.00,,,0.00,Wunderground v.1.15,2013-06-20 15:00:00,
2013-06-20 08:05:00,58.6,47.3,30.01,NW,311,0.0,0.0,66,0.00,,,0.00,Wunderground v.1.15,2013-06-20 15:05:00,
2013-06-20 08:10:00,58.7,47.4,30.01,WNW,290,0.0,3.0,66,0.00,,,0.00,Wunderground v.1.15,2013-06-20 15:10:00,
2013-06-20 08:15:00,58.7,47.4,30.01,WSW,240,1.0,3.0,66,0.00,,,0.00,Wunderground v.1.15,2013-06-20 15:15:00,
2013-06-20 08:25:00,59.3,47.5,30.01,WNW,298,0.0,1.0,65,0.00,,,0.00,Wunderground v.1.15,2013-06-20 15:25:00,
2013-06-20 08:30:00,59.8,47.6,30.01,SSE,165,0.0,1.0,64,0.00,,,0.00,Wunderground v.1.15,2013-06-20 15:30:00,
2013-06-20 08:35:00,60.4,47.7,30.01,SSE,167,0.0,1.0,63,0.00,,,0.00,Wunderground v.1.15,2013-06-20 15:35:00,
2013-06-20 08:40:00,60.9,47.8,30.01,NW,305,0.0,0.0,62,0.00,,,0.00,Wunderground v.1.15,2013-06-20 15:40:00,
2013-06-20 08:50:00,61.3,47.3,30.00,West,267,1.0,3.0,60,0.00,,,0.00,Wunderground v.1.15,2013-06-20 15:50:00,
2013-06-20 08:55:00,61.4,47.4,30.00,WSW,252,1.0,3.0,60,0.00,,,0.00,Wunderground v.1.15,2013-06-20 15:55:00,
2013-06-20 09:05:00,62.4,47.4,30.01,WSW,250,1.0,3.0,58,0.00,,,0.00,Wunderground v.1.15,2013-06-20 16:05:00,
2013-06-20 09:10:00,62.4,47.9,30.00,WNW,289,1.0,2.0,59,0.00,,,0.00,Wunderground v.1.15,2013-06-20 16:10:00,
2013-06-20 09:15:00,62.8,47.8,30.00,WNW,286,1.0,2.0,58,0.00,,,0.00,Wunderground v.1.15,2013-06-20 16:15:00,
2013-06-20 09:25:00,63.8,48.7,30.00,SW,223,1.0,1.0,58,0.00,,,0.00,Wunderground v.1.15,2013-06-20 16:25:00,
2013-06-20 09:30:00,64.3,49.7,30.00,West,263,1.0,2.0,59,0.00,,,0.00,Wunderground v.1.15,2013-06-20 16:30:00,
2013-06-20 09:35:00,65.0,50.3,30.00,WNW,298,0.0,2.0,59,0.00,,,0.00,Wunderground v.1.15,2013-06-20 16:35:00,
2013-06-20 09:45:00,65.9,49.3,30.00,NNW,328,1.0,2.0,55,0.00,,,0.00,Wunderground v.1.15,2013-06-20 16:45:00,
2013-06-20 09:50:00,65.9,48.3,30.00,SW,216,1.0,1.0,53,0.00,,,0.00,Wunderground v.1.15,2013-06-20 16:50:00,
2013-06-20 09:55:00,65.7,48.6,30.00,NW,307,2.0,2.0,54,0.00,,,0.00,Wunderground v.1.15,2013-06-20 16:55:00,
2013-06-20 10:00:00,65.7,48.6,30.00,NW,318,2.0,2.0,54,0.00,,,0.00,Wunderground v.1.15,2013-06-20 17:00:00,
2013-06-20 10:05:00,66.1,48.5,30.00,West,281,1.0,2.0,53,0.00,,,0.00,Wunderground v.1.15,2013-06-20 17:05:00,
2013-06-20 10:10:00,67.0,49.3,30.00,West,261,1.0,1.0,53,0.00,,,0.00,Wunderground v.1.15,2013-06-20 17:10:00,
2013-06-20 10:15:00,67.3,49.1,30.00,WNW,294,1.0,1.0,52,0.00,,,0.00,Wunderground v.1.15,2013-06-20 17:15:00,
2013-06-20 10:25:00,68.5,49.7,29.99,SW,223,1.0,2.0,51,0.00,,,0.00,Wunderground v.1.15,2013-06-20 17:25:00,
2013-06-20 10:30:00,69.1,49.7,29.99,West,278,1.0,1.0,50,0.00,,,0.00,Wunderground v.1.15,2013-06-20 17:30:00,
2013-06-20 10:35:00,69.8,49.8,29.99,SSE,158,1.0,1.0,49,0.00,,,0.00,Wunderground v.1.15,2013-06-20 17:35:00,
2013-06-20 10:40:00,70.2,49.0,29.99,West,273,1.0,1.0,47,0.00,,,0.00,Wunderground v.1.15,2013-06-20 17:40:00,
2013-06-20 10:45:00,70.0,48.8,29.99,West,266,1.0,1.0,47,0.00,,,0.00,Wunderground v.1.15,2013-06-20 17:45:00,
2013-06-20 10:50:00,70.5,49.3,29.99,NW,323,1.0,1.0,47,0.00,,,0.00,Wunderground v.1.15,2013-06-20 17:50:00,
2013-06-20 11:00:00,70.7,50.6,29.99,SSE,161,1.0,1.0,49,0.00,,,0.00,Wunderground v.1.15,2013-06-20 18:00:00,
2013-06-20 11:05:00,70.9,49.7,29.99,NNW,348,1.0,2.0,47,0.00,,,0.00,Wunderground v.1.15,2013-06-20 18:05:00,
2013-06-20 11:10:00,71.0,50.3,29.99,WSW,250,1.0,1.0,48,0.00,,,0.00,Wunderground v.1.15,2013-06-20 18:10:00,
2013-06-20 11:15:00,71.9,51.1,29.99,SE,143,0.0,1.0,48,0.00,,,0.00,Wunderground v.1.15,2013-06-20 18:15:00,
2013-06-20 11:20:00,72.3,50.4,29.99,NW,323,1.0,1.0,46,0.00,,,0.00,Wunderground v.1.15,2013-06-20 18:20:00,
2013-06-20 11:25:00,72.1,50.2,29.99,SW,214,1.0,1.0,46,0.00,,,0.00,Wunderground v.1.15,2013-06-20 18:25:00,
2013-06-20 11:35:00,72.3,50.9,29.99,WNW,282,1.0,1.0,47,0.00,,,0.00,Wunderground v.1.15,2013-06-20 18:35:00,
2013-06-20 11:40:00,73.1,51.1,29.99,North,5,1.0,1.0,46,0.00,,,0.00,Wunderground v.1.15,2013-06-20 18:40:00,
2013-06-20 11:45:00,74.0,50.1,29.99,NNW,329,1.0,1.0,43,0.00,,,0.00,Wunderground v.1.15,2013-06-20 18:45:00,
2013-06-20 11:50:00,73.5,50.2,29.99,NW,316,1.0,1.0,44,0.00,,,0.00,Wunderground v.1.15,2013-06-20 18:50:00,
2013-06-20 11:55:00,72.6,49.4,29.99,South,169,2.0,2.0,44,0.00,,,0.00,Wunderground v.1.15,2013-06-20 18:55:00,
2013-06-20 12:05:00,73.3,49.4,29.99,SW,215,1.0,1.0,43,0.00,,,0.00,Wunderground v.1.15,2013-06-20 19:05:00,
2013-06-20 12:10:00,72.8,49.6,29.99,West,275,2.0,2.0,44,0.00,,,0.00,Wunderground v.1.15,2013-06-20 19:10:00,
2013-06-20 12:15:00,72.9,49.7,29.99,West,259,2.0,4.0,44,0.00,,,0.00,Wunderground v.1.15,2013-06-20 19:15:00,
2013-06-20 12:25:00,72.6,48.8,29.98,WNW,293,2.0,5.0,43,0.00,,,0.00,Wunderground v.1.15,2013-06-20 19:25:00,
2013-06-20 12:30:00,73.0,49.2,29.98,NW,305,2.0,3.0,43,0.00,,,0.00,Wunderground v.1.15,2013-06-20 19:30:00,
2013-06-20 12:35:00,73.3,48.8,29.98,WNW,283,2.0,4.0,42,0.00,,,0.00,Wunderground v.1.15,2013-06-20 19:35:00,
2013-06-20 12:40:00,73.2,48.7,29.98,NW,311,2.0,2.0,42,0.00,,,0.00,Wunderground v.1.15,2013-06-20 19:40:00,
2013-06-20 12:45:00,73.8,48.6,29.98,SW,233,2.0,2.0,41,0.00,,,0.00,Wunderground v.1.15,2013-06-20 19:45:00,
2013-06-20 12:55:00,74.4,48.5,29.98,WNW,294,2.0,3.0,40,0.00,,,0.00,Wunderground v.1.15,2013-06-20 19:55:00,
2013-06-20 13:00:00,75.1,48.4,29.98,NW,306,3.0,3.0,39,0.00,,,0.00,Wunderground v.1.15,2013-06-20 20:00:00,
2013-06-20 13:05:00,75.4,48.7,29.98,South,174,2.0,3.0,39,0.00,,,0.00,Wunderground v.1.15,2013-06-20 20:05:00,
2013-06-20 13:10:00,75.9,49.2,29.98,ESE,123,1.0,2.0,39,0.00,,,0.00,Wunderground v.1.15,2013-06-20 20:10:00,
2013-06-20 13:15:00,76.7,48.5,29.98,SSE,164,1.0,2.0,37,0.00,,,0.00,Wunderground v.1.15,2013-06-20 20:15:00,
2013-06-20 13:25:00,77.0,48.7,29.98,WSW,246,2.0,2.0,37,0.00,,,0.00,Wunderground v.1.15,2013-06-20 20:25:00,
2013-06-20 13:30:00,77.3,49.0,29.97,West,273,1.0,1.0,37,0.00,,,0.00,Wunderground v.1.15,2013-06-20 20:30:00,
2013-06-20 13:35:00,77.3,49.0,29.97,WNW,300,1.0,1.0,37,0.00,,,0.00,Wunderground v.1.15,2013-06-20 20:35:00,
2013-06-20 13:40:00,77.3,48.3,29.97,NNW,333,2.0,2.0,36,0.00,,,0.00,Wunderground v.1.15,2013-06-20 20:40:00,
2013-06-20 13:45:00,77.1,46.6,29.97,NNW,339,2.0,2.0,34,0.00,,,0.00,Wunderground v.1.15,2013-06-20 20:45:00,
2013-06-20 13:55:00,76.9,47.9,29.97,SW,236,1.0,2.0,36,0.00,,,0.00,Wunderground v.1.15,2013-06-20 20:55:00,
2013-06-20 14:00:00,77.3,48.3,29.97,SE,142,1.0,1.0,36,0.00,,,0.00,Wunderground v.1.15,2013-06-20 21:00:00,
2013-06-20 14:05:00,77.3,46.7,29.97,NNW,327,2.0,7.0,34,0.00,,,0.00,Wunderground v.1.15,2013-06-20 21:05:00,
2013-06-20 14:10:00,76.4,46.7,29.97,NW,309,2.0,2.0,35,0.00,,,0.00,Wunderground v.1.15,2013-06-20 21:10:00,
2013-06-20 14:15:00,76.6,47.6,29.97,NNW,331,2.0,2.0,36,0.00,,,0.00,Wunderground v.1.15,2013-06-20 21:15:00,
2013-06-20 14:20:00,77.0,46.5,29.97,West,265,2.0,2.0,34,0.00,,,0.00,Wunderground v.1.15,2013-06-20 21:20:00,
2013-06-20 14:30:00,77.9,48.8,29.97,West,262,1.0,3.0,36,0.00,,,0.00,Wunderground v.1.15,2013-06-20 21:30:00,
2013-06-20 14:35:00,78.2,49.8,29.97,SSE,159,2.0,3.0,37,0.00,,,0.00,Wunderground v.1.15,2013-06-20 21:35:00,
2013-06-20 14:40:00,78.3,49.1,29.97,West,264,1.0,1.0,36,0.00,,,0.00,Wunderground v.1.15,2013-06-20 21:40:00,
2013-06-20 14:45:00,78.8,48.1,29.97,West,269,1.0,3.0,34,0.00,,,0.00,Wunderground v.1.15,2013-06-20 21:45:00,
2013-06-20 14:50:00,78.6,47.9,29.97,WNW,290,2.0,2.0,34,0.00,,,0.00,Wunderground v.1.15,2013-06-20 21:50:00,
2013-06-20 14:55:00,78.0,49.6,29.97,WSW,242,2.0,2.0,37,0.00,,,0.00,Wunderground v.1.15,2013-06-20 21:55:00,
2013-06-20 15:05:00,78.3,49.1,29.97,West,263,2.0,5.0,36,0.00,,,0.00,Wunderground v.1.15,2013-06-20 22:05:00,
2013-06-20 15:10:00,78.0,48.9,29.97,West,267,2.0,2.0,36,0.00,,,0.00,Wunderground v.1.15,2013-06-20 22:10:00,
2013-06-20 15:15:00,78.2,48.3,29.96,WNW,303,2.0,4.0,35,0.00,,,0.00,Wunderground v.1.15,2013-06-20 22:15:00,
2013-06-20 15:20:00,78.4,49.2,29.96,SW,236,1.0,1.0,36,0.00,,,0.00,Wunderground v.1.15,2013-06-20 22:20:00,
2013-06-20 15:30:00,77.7,47.9,29.96,SSE,167,2.0,2.0,35,0.00,,,0.00,Wunderground v.1.15,2013-06-20 22:30:00,
2013-06-20 15:35:00,77.2,46.7,29.96,West,261,2.0,2.0,34,0.00,,,0.00,Wunderground v.1.15,2013-06-20 22:35:00,
2013-06-20 15:40:00,77.1,46.6,29.96,WSW,247,2.0,2.0,34,0.00,,,0.00,Wunderground v.1.15,2013-06-20 22:40:00,
2013-06-20 15:45:00,77.5,46.9,29.96,West,265,1.0,2.0,34,0.00,,,0.00,Wunderground v.1.15,2013-06-20 22:45:00,
2013-06-20 15:55:00,77.7,47.1,29.96,SSE,153,1.0,3.0,34,0.00,,,0.00,Wunderground v.1.15,2013-06-20 22:55:00,
2013-06-20 16:00:00,77.9,46.5,29.96,SE,132,1.0,2.0,33,0.00,,,0.00,Wunderground v.1.15,2013-06-20 23:00:00,
2013-06-20 16:05:00,77.8,46.4,29.96,WSW,242,1.0,2.0,33,0.00,,,0.00,Wunderground v.1.15,2013-06-20 23:05:00,
2013-06-20 16:15:00,77.7,45.5,29.96,West,277,2.0,2.0,32,0.00,,,0.00,Wunderground v.1.15,2013-06-20 23:15:00,
2013-06-20 16:20:00,77.5,45.3,29.96,WSW,240,2.0,3.0,32,0.00,,,0.00,Wunderground v.1.15,2013-06-20 23:20:00,
2013-06-20 16:25:00,77.2,45.0,29.96,West,259,2.0,3.0,32,0.00,,,0.00,Wunderground v.1.15,2013-06-20 23:25:00,
2013-06-20 16:30:00,76.9,44.8,29.96,NW,319,2.0,4.0,32,0.00,,,0.00,Wunderground v.1.15,2013-06-20 23:30:00,
2013-06-20 16:35:00,76.5,46.0,29.96,NW,318,2.0,4.0,34,0.00,,,0.00,Wunderground v.1.15,2013-06-20 23:35:00,
2013-06-20 16:40:00,76.9,46.4,29.96,West,264,2.0,2.0,34,0.00,,,0.00,Wunderground v.1.15,2013-06-20 23:40:00,
2013-06-20 16:45:00,77.5,46.9,29.96,West,275,2.0,2.0,34,0.00,,,0.00,Wunderground v.1.15,2013-06-20 23:45:00,
2013-06-20 16:55:00,77.0,47.2,29.97,West,259,2.0,5.0,35,0.00,,,0.00,Wunderground v.1.15,2013-06-20 23:55:00,
2013-06-20 17:00:00,76.3,45.1,29.97,WNW,289,2.0,2.0,33,0.00,,,0.00,Wunderground v.1.15,2013-06-21 00:00:00,
2013-06-20 17:05:00,75.8,45.4,29.97,WNW,290,2.0,2.0,34,0.00,,,0.00,Wunderground v.1.15,2013-06-21 00:05:00,
2013-06-20 17:10:00,75.7,43.7,29.96,NNW,337,2.0,5.0,32,0.00,,,0.00,Wunderground v.1.15,2013-06-21 00:10:00,
2013-06-20 17:15:00,74.8,43.0,29.96,SE,137,2.0,5.0,32,0.00,,,0.00,Wunderground v.1.15,2013-06-21 00:15:00,
2013-06-20 17:25:00,74.5,42.7,29.96,NW,325,2.0,2.0,32,0.00,,,0.00,Wunderground v.1.15,2013-06-21 00:25:00,
2013-06-20 17:30:00,74.9,43.0,29.96,NW,326,1.0,3.0,32,0.00,,,0.00,Wunderground v.1.15,2013-06-21 00:30:00,
2013-06-20 17:35:00,74.4,43.4,29.96,NE,35,2.0,3.0,33,0.00,,,0.00,Wunderground v.1.15,2013-06-21 00:35:00,
2013-06-20 17:40:00,74.0,43.8,29.96,NW,320,3.0,3.0,34,0.00,,,0.00,Wunderground v.1.15,2013-06-21 00:40:00,
2013-06-20 17:50:00,73.5,44.2,29.96,NNW,344,3.0,3.0,35,0.00,,,0.00,Wunderground v.1.15,2013-06-21 00:50:00,
2013-06-20 17:55:00,73.4,44.1,29.96,NNW,329,2.0,3.0,35,0.00,,,0.00,Wunderground v.1.15,2013-06-21 00:55:00,
2013-06-20 18:00:00,73.0,43.7,29.96,NW,311,3.0,6.0,35,0.00,,,0.00,Wunderground v.1.15,2013-06-21 01:00:00,
2013-06-20 18:05:00,72.7,43.5,29.96,WNW,293,4.0,6.0,35,0.00,,,0.00,Wunderground v.1.15,2013-06-21 01:05:00,
2013-06-20 18:10:00,72.8,43.5,29.96,SW,228,3.0,4.0,35,0.00,,,0.00,Wunderground v.1.15,2013-06-21 01:10:00,
2013-06-20 18:20:00,72.7,43.5,29.96,WNW,302,2.0,2.0,35,0.00,,,0.00,Wunderground v.1.15,2013-06-21 01:20:00,
2013-06-20 18:25:00,73.0,44.5,29.96,West,270,2.0,2.0,36,0.00,,,0.00,Wunderground v.1.15,2013-06-21 01:25:00,
2013-06-20 18:30:00,72.9,44.4,29.96,West,269,2.0,3.0,36,0.00,,,0.00,Wunderground v.1.15,2013-06-21 01:30:00,
2013-06-20 18:35:00,72.3,45.3,29.96,NW,310,2.0,3.0,38,0.00,,,0.00,Wunderground v.1.15,2013-06-21 01:35:00,
2013-06-20 18:40:00,72.0,45.0,29.96,SE,134,1.0,1.0,38,0.00,,,0.00,Wunderground v.1.15,2013-06-21 01:40:00,
2013-06-20 18:45:00,72.0,45.0,29.96,WSW,256,1.0,4.0,38,0.00,,,0.00,Wunderground v.1.15,2013-06-21 01:45:00,
2013-06-20 18:55:00,71.3,45.7,29.96,East,84,1.0,1.0,40,0.00,,,0.00,Wunderground v.1.15,2013-06-21 01:55:00,
2013-06-20 19:00:00,71.1,44.9,29.96,WNW,290,1.0,1.0,39,0.00,,,0.00,Wunderground v.1.15,2013-06-21 02:00:00,
2013-06-20 19:05:00,70.5,45.0,29.96,SSW,196,1.0,2.0,40,0.00,,,0.00,Wunderground v.1.15,2013-06-21 02:05:00,
2013-06-20 19:15:00,69.6,45.5,29.96,West,276,0.0,1.0,42,0.00,,,0.00,Wunderground v.1.15,2013-06-21 02:15:00,
2013-06-20 19:20:00,69.0,45.6,29.96,NW,308,0.0,1.0,43,0.00,,,0.00,Wunderground v.1.15,2013-06-21 02:20:00,
2013-06-20 19:30:00,68.1,44.7,29.96,NE,36,1.0,1.0,43,0.00,,,0.00,Wunderground v.1.15,2013-06-21 02:30:00,
2013-06-20 19:35:00,67.5,44.8,29.97,NW,313,2.0,2.0,44,0.00,,,0.00,Wunderground v.1.15,2013-06-21 02:35:00,
2013-06-20 19:45:00,66.6,45.2,29.97,NNE,13,1.0,2.0,46,0.00,,,0.00,Wunderground v.1.15,2013-06-21 02:45:00,
2013-06-20 19:50:00,66.2,44.8,29.97,NW,319,0.0,0.0,46,0.00,,,0.00,Wunderground v.1.15,2013-06-21 02:50:00,
2013-06-20 19:55:00,65.9,45.1,29.97,NW,309,0.0,1.0,47,0.00,,,0.00,Wunderground v.1.15,2013-06-21 02:55:00,
2013-06-20 20:00:00,65.6,44.8,29.97,NW,304,1.0,2.0,47,0.00,,,0.00,Wunderground v.1.15,2013-06-21 03:00:00,
2013-06-20 20:10:00,65.0,44.3,29.97,WSW,248,1.0,1.0,47,0.00,,,0.00,Wunderground v.1.15,2013-06-21 03:10:00,
2013-06-20 20:15:00,64.8,44.6,29.97,WNW,292,1.0,1.0,48,0.00,,,0.00,Wunderground v.1.15,2013-06-21 03:15:00,
2013-06-20 20:20:00,64.5,44.4,29.97,NW,315,1.0,2.0,48,0.00,,,0.00,Wunderground v.1.15,2013-06-21 03:20:00,
2013-06-20 20:25:00,64.3,44.2,29.97,NW,321,1.0,2.0,48,0.00,,,0.00,Wunderground v.1.15,2013-06-21 03:25:00,
2013-06-20 20:30:00,64.0,43.9,29.97,WNW,301,1.0,1.0,48,0.00,,,0.00,Wunderground v.1.15,2013-06-21 03:30:00,
2013-06-20 20:40:00,63.2,43.7,29.97,NNW,341,1.0,3.0,49,0.00,,,0.00,Wunderground v.1.15,2013-06-21 03:40:00,
2013-06-20 20:45:00,62.9,43.4,29.97,West,279,1.0,3.0,49,0.00,,,0.00,Wunderground v.1.15,2013-06-21 03:45:00,
2013-06-20 20:50:00,62.5,43.6,29.97,West,272,1.0,1.0,50,0.00,,,0.00,Wunderground v.1.15,2013-06-21 03:50:00,
2013-06-20 20:55:00,62.1,43.2,29.97,WNW,287,1.0,1.0,50,0.00,,,0.00,Wunderground v.1.15,2013-06-21 03:55:00,
2013-06-20 21:05:00,61.7,42.9,29.97,North,351,1.0,1.0,50,0.00,,,0.00,Wunderground v.1.15,2013-06-21 04:05:00,
2013-06-20 21:10:00,61.4,42.6,29.97,NNW,348,0.0,0.0,50,0.00,,,0.00,Wunderground v.1.15,2013-06-21 04:10:00,
2013-06-20 21:15:00,61.1,42.3,29.97,WNW,298,0.0,0.0,50,0.00,,,0.00,Wunderground v.1.15,2013-06-21 04:15:00,
2013-06-20 21:25:00,60.5,42.3,29.97,WNW,303,0.0,1.0,51,0.00,,,0.00,Wunderground v.1.15,2013-06-21 04:25:00,
2013-06-20 21:30:00,60.4,42.7,29.97,NW,305,0.0,0.0,52,0.00,,,0.00,Wunderground v.1.15,2013-06-21 04:30:00,
2013-06-20 21:35:00,60.4,43.2,29.97,West,262,1.0,1.0,53,0.00,,,0.00,Wunderground v.1.15,2013-06-21 04:35:00,
2013-06-20 21:40:00,60.3,43.1,29.97,West,269,0.0,0.0,53,0.00,,,0.00,Wunderground v.1.15,2013-06-21 04:40:00,
2013-06-20 21:45:00,60.2,43.5,29.98,WSW,250,0.0,0.0,54,0.00,,,0.00,Wunderground v.1.15,2013-06-21 04:45:00,
2013-06-20 21:55:00,59.5,43.3,29.98,WSW,253,0.0,0.0,55,0.00,,,0.00,Wunderground v.1.15,2013-06-21 04:55:00,
2013-06-20 22:00:00,59.2,43.5,29.98,WSW,253,0.0,0.0,56,0.00,,,0.00,Wunderground v.1.15,2013-06-21 05:00:00,
2013-06-20 22:05:00,58.9,43.2,29.98,WSW,253,0.0,0.0,56,0.00,,,0.00,Wunderground v.1.15,2013-06-21 05:05:00,
2013-06-20 22:10:00,58.6,43.4,29.98,WSW,253,0.0,0.0,57,0.00,,,0.00,Wunderground v.1.15,2013-06-21 05:10:00,
2013-06-20 22:15:00,58.3,43.6,29.98,WSW,253,0.0,0.0,58,0.00,,,0.00,Wunderground v.1.15,2013-06-21 05:15:00,
2013-06-20 22:25:00,57.7,43.9,29.98,West,259,0.0,0.0,60,0.00,,,0.00,Wunderground v.1.15,2013-06-21 05:25:00,
2013-06-20 22:30:00,57.4,43.6,29.98,NW,313,0.0,0.0,60,0.00,,,0.00,Wunderground v.1.15,2013-06-21 05:30:00,
2013-06-20 22:35:00,57.2,43.4,29.98,NW,313,0.0,0.0,60,0.00,,,0.00,Wunderground v.1.15,2013-06-21 05:35:00,
2013-06-20 22:45:00,56.8,43.5,29.98,NW,313,0.0,0.0,61,0.00,,,0.00,Wunderground v.1.15,2013-06-21 05:45:00,
2013-06-20 22:50:00,56.7,44.7,29.98,NW,313,0.0,0.0,64,0.00,,,0.00,Wunderground v.1.15,2013-06-21 05:50:00,
2013-06-20 22:55:00,56.6,44.6,29.99,NW,313,0.0,0.0,64,0.00,,,0.00,Wunderground v.1.15,2013-06-21 05:55:00,
2013-06-20 23:05:00,56.2,45.8,29.98,NW,315,0.0,0.0,68,0.00,,,0.00,Wunderground v.1.15,2013-06-21 06:05:00,
2013-06-20 23:10:00,56.0,46.4,29.98,NW,315,0.0,0.0,70,0.00,,,0.00,Wunderground v.1.15,2013-06-21 06:10:00,
2013-06-20 23:15:00,55.7,46.8,29.98,NW,315,0.0,0.0,72,0.00,,,0.00,Wunderground v.1.15,2013-06-21 06:15:00,
2013-06-20 23:20:00,55.4,46.9,29.98,NW,315,0.0,0.0,73,0.00,,,0.00,Wunderground v.1.15,2013-06-21 06:20:00,
2013-06-20 23:25:00,55.1,47.0,29.98,NW,315,0.0,0.0,74,0.00,,,0.00,Wunderground v.1.15,2013-06-21 06:25:00,
2013-06-20 23:35:00,54.6,46.8,29.98,NW,315,0.0,0.0,75,0.00,,,0.00,Wunderground v.1.15,2013-06-21 06:35:00,
2013-06-20 23:40:00,54.6,46.8,29.98,NW,315,0.0,0.0,75,0.00,,,0.00,Wunderground v.1.15,2013-06-21 06:40:00,
2013-06-20 23:45:00,54.6,46.8,29.98,NW,315,0.0,0.0,75,0.00,,,0.00,Wunderground v.1.15,2013-06-21 06:45:00,
2013-06-20 23:50:00,54.4,47.0,29.98,NW,315,0.0,0.0,76,0.00,,,0.00,Wunderground v.1.15,2013-06-21 06:50:00,